EKCO2: Lake Creek nr Eakly, OK 2SE nr Binger 11W

Data processed at Tue May 21 2019 21:30


All information presented herein is the property of the government of the United States of America and may be revised or deleted at any time without prior notice.
Dissemination of this information without the expressed written consent of the Public Affairs Office, Tulsa District U.S. Army Corps of Engineers is strictly prohibited.
These data are gathered electronically and, as presented, have not undergone any form of quality control. These data are not guaranteed to be valid or correct.
Go to home page.
Go to station list.
Go to home page.

Downstream station:


Previous Day
Next Day
Current Day
    
SHEF ID:       EKCO2     Lake Creek near Eakly, OK
STATION TYPE:  
Regulating: Stage =    11.50, Flow =      948

               PRECIP     STAGE  STAGE(2)  RIV-FLOW  BAT-LOAD
                   in        ft        ft       cfs      volt
              Ccp-Rev   Ccp-Rev   Ccp-Rev   Ccp-Rev   Ccp-Rev
(US/Central)
05/21 00:00      0.00      6.94      ----       189     12.41
05/21 01:00      0.00      8.42      ----       359     12.41
05/21 02:00      0.00     10.51      ----       714     12.41
05/21 03:00      0.00     11.42      ----       926     12.41
05/21 04:00      0.00     11.33      ----       903     12.41
05/21 05:00      0.00     11.24      ----       880     12.41
05/21 06:00      0.00     11.08      ----       840     12.41
05/21 07:00      0.00     10.81      ----       778     12.41
05/21 08:00      0.00     10.53      ----       718     12.41
05/21 09:00      0.00     10.38      ----       688     12.41
05/21 10:00      0.00     10.18      ----       648     12.41
05/21 11:00      0.00      9.90      ----       594     12.57
05/21 12:00      0.00      9.43      ----       510     12.57
05/21 13:00      0.00      9.10      ----       457     12.65
05/21 14:00      0.00      8.68      ----       395      ----
05/21 15:00      0.00      8.34      ----       348     12.89
05/21 16:00      0.00      8.02      ----       307     12.81
05/21 17:00      0.00      7.75      ----       274     12.81
05/21 18:00      0.00      7.52      ----       248     12.73
05/21 19:00      0.00      7.31      ----       226     12.65
05/21 20:00      0.00      7.13      ----       207     12.65
05/21 21:00      0.00      6.97      ----       192     12.57
05/21 22:00      ----      ----      ----      ----      ----
05/21 23:00      ----      ----      ----      ----      ----